sensor_id;sensor_type;location;lat;lon;timestamp;P1;durP1;ratioP1;P2;durP2;ratioP2
9801;SDS011;4940;50.900;4.672;2023-07-28T00:01:19;94.25;;;87.22;;
9801;SDS011;4940;50.900;4.672;2023-07-28T00:03:47;99.28;;;92.28;;
9801;SDS011;4940;50.900;4.672;2023-07-28T00:06:15;73.95;;;68.18;;
9801;SDS011;4940;50.900;4.672;2023-07-28T00:08:42;104.00;;;96.57;;
9801;SDS011;4940;50.900;4.672;2023-07-28T00:11:09;102.05;;;94.80;;
9801;SDS011;4940;50.900;4.672;2023-07-28T00:13:37;83.95;;;77.32;;
9801;SDS011;4940;50.900;4.672;2023-07-28T00:16:05;85.85;;;79.25;;
9801;SDS011;4940;50.900;4.672;2023-07-28T00:18:32;82.30;;;75.82;;
9801;SDS011;4940;50.900;4.672;2023-07-28T00:21:01;85.50;;;79.07;;
9801;SDS011;4940;50.900;4.672;2023-07-28T00:23:29;93.15;;;86.28;;
9801;SDS011;4940;50.900;4.672;2023-07-28T00:25:56;84.10;;;77.70;;
9801;SDS011;4940;50.900;4.672;2023-07-28T00:28:23;92.05;;;85.05;;
9801;SDS011;4940;50.900;4.672;2023-07-28T00:30:51;95.93;;;88.88;;
9801;SDS011;4940;50.900;4.672;2023-07-28T00:33:18;96.90;;;89.80;;
9801;SDS011;4940;50.900;4.672;2023-07-28T00:35:45;93.47;;;86.38;;
9801;SDS011;4940;50.900;4.672;2023-07-28T00:38:14;95.57;;;88.63;;
9801;SDS011;4940;50.900;4.672;2023-07-28T00:40:42;95.70;;;88.57;;
9801;SDS011;4940;50.900;4.672;2023-07-28T00:43:09;95.18;;;88.07;;
9801;SDS011;4940;50.900;4.672;2023-07-28T00:45:36;90.20;;;83.22;;
9801;SDS011;4940;50.900;4.672;2023-07-28T00:48:04;101.40;;;94.03;;
9801;SDS011;4940;50.900;4.672;2023-07-28T00:50:37;111.60;;;103.80;;
9801;SDS011;4940;50.900;4.672;2023-07-28T00:53:04;98.38;;;91.13;;
9801;SDS011;4940;50.900;4.672;2023-07-28T00:55:33;117.15;;;108.95;;
9801;SDS011;4940;50.900;4.672;2023-07-28T00:58:01;112.00;;;104.05;;
9801;SDS011;4940;50.900;4.672;2023-07-28T01:00:28;110.32;;;102.32;;
9801;SDS011;4940;50.900;4.672;2023-07-28T01:02:56;101.05;;;93.53;;
9801;SDS011;4940;50.900;4.672;2023-07-28T01:05:25;94.88;;;87.28;;
9801;SDS011;4940;50.900;4.672;2023-07-28T01:07:59;92.95;;;85.95;;
9801;SDS011;4940;50.900;4.672;2023-07-28T01:10:31;105.85;;;98.15;;
9801;SDS011;4940;50.900;4.672;2023-07-28T01:13:00;96.22;;;89.00;;
9801;SDS011;4940;50.900;4.672;2023-07-28T01:15:27;83.10;;;76.55;;
9801;SDS011;4940;50.900;4.672;2023-07-28T01:17:55;112.75;;;104.93;;
9801;SDS011;4940;50.900;4.672;2023-07-28T01:20:22;88.65;;;81.80;;
9801;SDS011;4940;50.900;4.672;2023-07-28T01:23:05;113.47;;;105.47;;
9801;SDS011;4940;50.900;4.672;2023-07-28T01:25:39;105.53;;;97.97;;
9801;SDS011;4940;50.900;4.672;2023-07-28T01:28:16;95.40;;;87.93;;
9801;SDS011;4940;50.900;4.672;2023-07-28T01:30:44;99.20;;;91.80;;
9801;SDS011;4940;50.900;4.672;2023-07-28T01:33:11;110.32;;;102.05;;
9801;SDS011;4940;50.900;4.672;2023-07-28T01:35:39;101.35;;;93.95;;
9801;SDS011;4940;50.900;4.672;2023-07-28T01:38:06;94.15;;;86.80;;
9801;SDS011;4940;50.900;4.672;2023-07-28T01:40:34;101.47;;;93.80;;
9801;SDS011;4940;50.900;4.672;2023-07-28T01:43:01;96.43;;;89.13;;
9801;SDS011;4940;50.900;4.672;2023-07-28T01:45:30;99.50;;;91.97;;
9801;SDS011;4940;50.900;4.672;2023-07-28T01:47:57;95.65;;;88.18;;
9801;SDS011;4940;50.900;4.672;2023-07-28T01:50:24;102.13;;;94.68;;
9801;SDS011;4940;50.900;4.672;2023-07-28T01:52:52;107.93;;;99.97;;
9801;SDS011;4940;50.900;4.672;2023-07-28T01:55:19;95.72;;;88.30;;
9801;SDS011;4940;50.900;4.672;2023-07-28T01:57:50;98.03;;;90.32;;
9801;SDS011;4940;50.900;4.672;2023-07-28T02:00:21;111.10;;;103.20;;
9801;SDS011;4940;50.900;4.672;2023-07-28T02:02:49;104.78;;;96.82;;
9801;SDS011;4940;50.900;4.672;2023-07-28T02:05:17;100.45;;;92.75;;
9801;SDS011;4940;50.900;4.672;2023-07-28T02:07:45;98.32;;;91.07;;
9801;SDS011;4940;50.900;4.672;2023-07-28T02:10:12;120.97;;;112.68;;
9801;SDS011;4940;50.900;4.672;2023-07-28T02:12:40;108.55;;;100.78;;
9801;SDS011;4940;50.900;4.672;2023-07-28T02:15:07;112.82;;;104.82;;
9801;SDS011;4940;50.900;4.672;2023-07-28T02:17:35;119.78;;;111.40;;
9801;SDS011;4940;50.900;4.672;2023-07-28T02:20:04;101.95;;;94.25;;
9801;SDS011;4940;50.900;4.672;2023-07-28T02:22:32;99.78;;;92.20;;
9801;SDS011;4940;50.900;4.672;2023-07-28T02:24:59;116.22;;;107.80;;
9801;SDS011;4940;50.900;4.672;2023-07-28T02:27:27;105.57;;;97.97;;
9801;SDS011;4940;50.900;4.672;2023-07-28T02:29:55;102.75;;;95.35;;
9801;SDS011;4940;50.900;4.672;2023-07-28T02:32:22;103.00;;;95.22;;
9801;SDS011;4940;50.900;4.672;2023-07-28T02:34:49;104.10;;;96.50;;
9801;SDS011;4940;50.900;4.672;2023-07-28T02:37:18;105.32;;;97.50;;
9801;SDS011;4940;50.900;4.672;2023-07-28T02:39:45;99.65;;;92.05;;
9801;SDS011;4940;50.900;4.672;2023-07-28T02:42:12;121.05;;;112.75;;
9801;SDS011;4940;50.900;4.672;2023-07-28T02:44:40;119.13;;;110.82;;
9801;SDS011;4940;50.900;4.672;2023-07-28T02:47:07;97.03;;;88.93;;
9801;SDS011;4940;50.900;4.672;2023-07-28T02:49:34;91.53;;;84.47;;
9801;SDS011;4940;50.900;4.672;2023-07-28T02:52:02;105.38;;;97.80;;
9801;SDS011;4940;50.900;4.672;2023-07-28T02:54:31;107.93;;;99.90;;
9801;SDS011;4940;50.900;4.672;2023-07-28T02:56:58;104.70;;;96.88;;
9801;SDS011;4940;50.900;4.672;2023-07-28T02:59:25;94.57;;;87.03;;
9801;SDS011;4940;50.900;4.672;2023-07-28T03:01:53;93.18;;;85.72;;
9801;SDS011;4940;50.900;4.672;2023-07-28T03:04:22;99.53;;;91.85;;
9801;SDS011;4940;50.900;4.672;2023-07-28T03:06:50;93.68;;;86.07;;
9801;SDS011;4940;50.900;4.672;2023-07-28T03:09:17;80.70;;;73.60;;
9801;SDS011;4940;50.900;4.672;2023-07-28T03:11:46;90.75;;;83.47;;
9801;SDS011;4940;50.900;4.672;2023-07-28T03:14:13;94.47;;;87.28;;
9801;SDS011;4940;50.900;4.672;2023-07-28T03:16:42;97.45;;;89.85;;
9801;SDS011;4940;50.900;4.672;2023-07-28T03:19:09;95.85;;;88.43;;
9801;SDS011;4940;50.900;4.672;2023-07-28T03:21:36;78.13;;;71.68;;
9801;SDS011;4940;50.900;4.672;2023-07-28T03:24:04;89.78;;;82.57;;
9801;SDS011;4940;50.900;4.672;2023-07-28T03:26:31;82.93;;;75.78;;
9801;SDS011;4940;50.900;4.672;2023-07-28T03:29:00;85.05;;;77.90;;
9801;SDS011;4940;50.900;4.672;2023-07-28T03:31:27;85.13;;;78.30;;
9801;SDS011;4940;50.900;4.672;2023-07-28T03:33:55;79.60;;;73.15;;
9801;SDS011;4940;50.900;4.672;2023-07-28T03:36:22;82.97;;;75.82;;
9801;SDS011;4940;50.900;4.672;2023-07-28T03:38:49;95.47;;;88.25;;
9801;SDS011;4940;50.900;4.672;2023-07-28T03:41:17;95.47;;;88.32;;
9801;SDS011;4940;50.900;4.672;2023-07-28T03:43:44;79.75;;;73.05;;
9801;SDS011;4940;50.900;4.672;2023-07-28T03:46:13;70.13;;;63.95;;
9801;SDS011;4940;50.900;4.672;2023-07-28T03:48:41;84.57;;;77.70;;
9801;SDS011;4940;50.900;4.672;2023-07-28T03:51:08;96.32;;;89.07;;
9801;SDS011;4940;50.900;4.672;2023-07-28T03:53:36;72.57;;;66.18;;
9801;SDS011;4940;50.900;4.672;2023-07-28T03:56:03;84.05;;;77.47;;
9801;SDS011;4940;50.900;4.672;2023-07-28T03:58:31;86.05;;;79.15;;
9801;SDS011;4940;50.900;4.672;2023-07-28T04:00:58;94.80;;;87.78;;
9801;SDS011;4940;50.900;4.672;2023-07-28T04:03:27;108.30;;;100.60;;
9801;SDS011;4940;50.900;4.672;2023-07-28T04:05:54;98.57;;;91.25;;
9801;SDS011;4940;50.900;4.672;2023-07-28T04:08:21;99.28;;;91.85;;
9801;SDS011;4940;50.900;4.672;2023-07-28T04:10:49;91.20;;;84.32;;
9801;SDS011;4940;50.900;4.672;2023-07-28T04:13:16;99.10;;;91.80;;
9801;SDS011;4940;50.900;4.672;2023-07-28T04:15:43;95.22;;;87.97;;
9801;SDS011;4940;50.900;4.672;2023-07-28T04:18:12;114.40;;;106.50;;
9801;SDS011;4940;50.900;4.672;2023-07-28T04:20:41;111.47;;;103.78;;
9801;SDS011;4940;50.900;4.672;2023-07-28T04:23:08;86.05;;;79.40;;
9801;SDS011;4940;50.900;4.672;2023-07-28T04:25:35;95.43;;;88.03;;
9801;SDS011;4940;50.900;4.672;2023-07-28T04:28:02;86.20;;;79.60;;
9801;SDS011;4940;50.900;4.672;2023-07-28T04:30:30;97.05;;;89.93;;
9801;SDS011;4940;50.900;4.672;2023-07-28T04:32:57;71.43;;;65.53;;
9801;SDS011;4940;50.900;4.672;2023-07-28T04:35:24;59.50;;;53.85;;
9801;SDS011;4940;50.900;4.672;2023-07-28T04:37:53;44.90;;;40.40;;
9801;SDS011;4940;50.900;4.672;2023-07-28T04:40:20;46.50;;;41.95;;
9801;SDS011;4940;50.900;4.672;2023-07-28T04:42:48;50.17;;;45.17;;
9801;SDS011;4940;50.900;4.672;2023-07-28T04:45:18;46.70;;;42.17;;
9801;SDS011;4940;50.900;4.672;2023-07-28T04:47:45;54.25;;;49.15;;
9801;SDS011;4940;50.900;4.672;2023-07-28T04:50:12;62.50;;;56.55;;
9801;SDS011;4940;50.900;4.672;2023-07-28T04:52:40;49.00;;;44.20;;
9801;SDS011;4940;50.900;4.672;2023-07-28T04:55:09;45.55;;;40.70;;
9801;SDS011;4940;50.900;4.672;2023-07-28T04:57:36;43.53;;;39.17;;
9801;SDS011;4940;50.900;4.672;2023-07-28T05:00:03;44.03;;;39.63;;
9801;SDS011;4940;50.900;4.672;2023-07-28T05:02:31;44.10;;;39.70;;
9801;SDS011;4940;50.900;4.672;2023-07-28T05:04:59;46.58;;;42.10;;
9801;SDS011;4940;50.900;4.672;2023-07-28T05:07:26;46.30;;;41.80;;
9801;SDS011;4940;50.900;4.672;2023-07-28T05:09:54;46.85;;;42.45;;
9801;SDS011;4940;50.900;4.672;2023-07-28T05:12:23;46.15;;;41.75;;
9801;SDS011;4940;50.900;4.672;2023-07-28T05:14:50;42.33;;;38.05;;
9801;SDS011;4940;50.900;4.672;2023-07-28T05:17:18;43.53;;;39.22;;
9801;SDS011;4940;50.900;4.672;2023-07-28T05:19:45;42.58;;;38.15;;
9801;SDS011;4940;50.900;4.672;2023-07-28T05:22:12;42.00;;;37.60;;
9801;SDS011;4940;50.900;4.672;2023-07-28T05:24:40;42.08;;;37.83;;
9801;SDS011;4940;50.900;4.672;2023-07-28T05:27:07;44.30;;;40.00;;
9801;SDS011;4940;50.900;4.672;2023-07-28T05:29:36;47.88;;;43.28;;
9801;SDS011;4940;50.900;4.672;2023-07-28T05:32:03;43.97;;;39.55;;
9801;SDS011;4940;50.900;4.672;2023-07-28T05:34:32;41.40;;;37.28;;
9801;SDS011;4940;50.900;4.672;2023-07-28T05:36:59;42.53;;;38.13;;
9801;SDS011;4940;50.900;4.672;2023-07-28T05:39:26;42.72;;;38.42;;
9801;SDS011;4940;50.900;4.672;2023-07-28T05:41:54;41.90;;;37.70;;
9801;SDS011;4940;50.900;4.672;2023-07-28T05:44:21;43.75;;;39.45;;
9801;SDS011;4940;50.900;4.672;2023-07-28T05:46:50;43.50;;;39.20;;
9801;SDS011;4940;50.900;4.672;2023-07-28T05:49:17;40.63;;;36.42;;
9801;SDS011;4940;50.900;4.672;2023-07-28T05:51:45;42.35;;;38.15;;
9801;SDS011;4940;50.900;4.672;2023-07-28T05:54:12;42.17;;;37.88;;
9801;SDS011;4940;50.900;4.672;2023-07-28T05:56:40;43.83;;;39.42;;
9801;SDS011;4940;50.900;4.672;2023-07-28T05:59:08;44.20;;;39.90;;
9801;SDS011;4940;50.900;4.672;2023-07-28T06:01:35;44.22;;;39.75;;
9801;SDS011;4940;50.900;4.672;2023-07-28T06:04:04;43.45;;;39.05;;
9801;SDS011;4940;50.900;4.672;2023-07-28T06:06:31;41.30;;;37.20;;
9801;SDS011;4940;50.900;4.672;2023-07-28T06:08:58;43.20;;;38.72;;
9801;SDS011;4940;50.900;4.672;2023-07-28T06:11:25;44.65;;;40.03;;
9801;SDS011;4940;50.900;4.672;2023-07-28T06:13:53;45.10;;;40.72;;
9801;SDS011;4940;50.900;4.672;2023-07-28T06:16:20;43.15;;;38.75;;
9801;SDS011;4940;50.900;4.672;2023-07-28T06:18:48;46.22;;;41.92;;
9801;SDS011;4940;50.900;4.672;2023-07-28T06:21:16;44.30;;;40.00;;
9801;SDS011;4940;50.900;4.672;2023-07-28T06:23:44;41.15;;;37.05;;
9801;SDS011;4940;50.900;4.672;2023-07-28T06:26:12;41.58;;;37.53;;
9801;SDS011;4940;50.900;4.672;2023-07-28T06:28:39;42.30;;;38.22;;
9801;SDS011;4940;50.900;4.672;2023-07-28T06:31:06;39.53;;;35.63;;
9801;SDS011;4940;50.900;4.672;2023-07-28T06:33:34;41.13;;;37.08;;
9801;SDS011;4940;50.900;4.672;2023-07-28T06:36:02;41.50;;;37.38;;
9801;SDS011;4940;50.900;4.672;2023-07-28T06:38:31;40.40;;;36.40;;
9801;SDS011;4940;50.900;4.672;2023-07-28T06:40:59;42.47;;;38.47;;
9801;SDS011;4940;50.900;4.672;2023-07-28T06:43:26;43.25;;;38.97;;
9801;SDS011;4940;50.900;4.672;2023-07-28T06:45:54;43.05;;;38.65;;
9801;SDS011;4940;50.900;4.672;2023-07-28T06:48:21;43.95;;;39.75;;
9801;SDS011;4940;50.900;4.672;2023-07-28T06:50:48;48.45;;;44.05;;
9801;SDS011;4940;50.900;4.672;2023-07-28T06:53:16;45.20;;;40.67;;
9801;SDS011;4940;50.900;4.672;2023-07-28T06:55:44;42.33;;;38.08;;
9801;SDS011;4940;50.900;4.672;2023-07-28T06:58:11;42.28;;;37.97;;
9801;SDS011;4940;50.900;4.672;2023-07-28T07:00:39;42.55;;;38.33;;
9801;SDS011;4940;50.900;4.672;2023-07-28T07:03:06;42.42;;;38.42;;
9801;SDS011;4940;50.900;4.672;2023-07-28T07:05:34;45.65;;;41.20;;
9801;SDS011;4940;50.900;4.672;2023-07-28T07:08:01;47.53;;;43.22;;
9801;SDS011;4940;50.900;4.672;2023-07-28T07:10:28;45.33;;;41.13;;
9801;SDS011;4940;50.900;4.672;2023-07-28T07:12:57;43.55;;;39.25;;
9801;SDS011;4940;50.900;4.672;2023-07-28T07:15:24;44.38;;;40.08;;
9801;SDS011;4940;50.900;4.672;2023-07-28T07:17:51;46.17;;;41.58;;
9801;SDS011;4940;50.900;4.672;2023-07-28T07:20:19;44.40;;;40.00;;
9801;SDS011;4940;50.900;4.672;2023-07-28T07:22:46;47.35;;;42.85;;
9801;SDS011;4940;50.900;4.672;2023-07-28T07:25:14;44.88;;;40.53;;
9801;SDS011;4940;50.900;4.672;2023-07-28T07:27:41;43.30;;;39.10;;
9801;SDS011;4940;50.900;4.672;2023-07-28T07:30:10;45.22;;;40.80;;
9801;SDS011;4940;50.900;4.672;2023-07-28T07:32:38;48.67;;;44.28;;
9801;SDS011;4940;50.900;4.672;2023-07-28T07:35:05;43.25;;;39.25;;
9801;SDS011;4940;50.900;4.672;2023-07-28T07:37:34;42.15;;;38.17;;
9801;SDS011;4940;50.900;4.672;2023-07-28T07:40:01;41.95;;;38.08;;
9801;SDS011;4940;50.900;4.672;2023-07-28T07:42:30;42.25;;;38.10;;
9801;SDS011;4940;50.900;4.672;2023-07-28T07:45:08;40.10;;;36.30;;
9801;SDS011;4940;50.900;4.672;2023-07-28T07:47:38;41.03;;;37.33;;
9801;SDS011;4940;50.900;4.672;2023-07-28T07:50:05;41.95;;;38.25;;
9801;SDS011;4940;50.900;4.672;2023-07-28T07:52:34;39.95;;;36.20;;
9801;SDS011;4940;50.900;4.672;2023-07-28T07:55:01;41.08;;;37.58;;
9801;SDS011;4940;50.900;4.672;2023-07-28T07:57:29;42.47;;;38.88;;
9801;SDS011;4940;50.900;4.672;2023-07-28T07:59:57;41.03;;;37.42;;
9801;SDS011;4940;50.900;4.672;2023-07-28T08:02:25;41.00;;;37.60;;
9801;SDS011;4940;50.900;4.672;2023-07-28T08:04:52;41.88;;;38.17;;
9801;SDS011;4940;50.900;4.672;2023-07-28T08:07:20;39.30;;;35.90;;
9801;SDS011;4940;50.900;4.672;2023-07-28T08:09:48;42.20;;;38.65;;
9801;SDS011;4940;50.900;4.672;2023-07-28T08:12:15;38.63;;;35.63;;
9801;SDS011;4940;50.900;4.672;2023-07-28T08:14:43;34.15;;;31.95;;
9801;SDS011;4940;50.900;4.672;2023-07-28T08:17:11;32.38;;;30.48;;
9801;SDS011;4940;50.900;4.672;2023-07-28T08:19:39;30.60;;;28.70;;
9801;SDS011;4940;50.900;4.672;2023-07-28T08:22:07;31.98;;;29.98;;
9801;SDS011;4940;50.900;4.672;2023-07-28T08:24:35;33.60;;;31.30;;
9801;SDS011;4940;50.900;4.672;2023-07-28T08:27:02;34.00;;;31.60;;
9801;SDS011;4940;50.900;4.672;2023-07-28T08:29:30;33.40;;;31.30;;
9801;SDS011;4940;50.900;4.672;2023-07-28T08:31:57;32.58;;;30.67;;
9801;SDS011;4940;50.900;4.672;2023-07-28T08:34:24;28.23;;;26.73;;
9801;SDS011;4940;50.900;4.672;2023-07-28T08:36:53;29.23;;;27.65;;
9801;SDS011;4940;50.900;4.672;2023-07-28T08:39:21;29.60;;;28.00;;
9801;SDS011;4940;50.900;4.672;2023-07-28T08:41:56;28.33;;;26.75;;
9801;SDS011;4940;50.900;4.672;2023-07-28T08:44:24;27.70;;;26.20;;
9801;SDS011;4940;50.900;4.672;2023-07-28T08:46:52;26.35;;;24.98;;
9801;SDS011;4940;50.900;4.672;2023-07-28T08:49:19;27.27;;;25.88;;
9801;SDS011;4940;50.900;4.672;2023-07-28T08:51:48;30.58;;;28.88;;
9801;SDS011;4940;50.900;4.672;2023-07-28T08:54:17;30.13;;;28.52;;
9801;SDS011;4940;50.900;4.672;2023-07-28T08:56:45;28.75;;;27.17;;
9801;SDS011;4940;50.900;4.672;2023-07-28T08:59:19;33.53;;;31.55;;
9801;SDS011;4940;50.900;4.672;2023-07-28T09:01:49;17.33;;;16.45;;
9801;SDS011;4940;50.900;4.672;2023-07-28T09:04:16;8.13;;;7.72;;
9801;SDS011;4940;50.900;4.672;2023-07-28T09:06:44;4.28;;;3.88;;
9801;SDS011;4940;50.900;4.672;2023-07-28T09:09:12;2.85;;;2.75;;
9801;SDS011;4940;50.900;4.672;2023-07-28T09:11:44;2.67;;;2.58;;
9801;SDS011;4940;50.900;4.672;2023-07-28T09:14:13;1.73;;;1.63;;
9801;SDS011;4940;50.900;4.672;2023-07-28T09:16:41;1.25;;;1.10;;
9801;SDS011;4940;50.900;4.672;2023-07-28T09:19:09;1.60;;;1.50;;
9801;SDS011;4940;50.900;4.672;2023-07-28T09:21:37;2.88;;;1.80;;
9801;SDS011;4940;50.900;4.672;2023-07-28T09:24:06;3.13;;;3.03;;
9801;SDS011;4940;50.900;4.672;2023-07-28T09:26:38;6.15;;;5.85;;
9801;SDS011;4940;50.900;4.672;2023-07-28T09:29:17;6.18;;;5.88;;
9801;SDS011;4940;50.900;4.672;2023-07-28T09:31:45;14.32;;;13.65;;
9801;SDS011;4940;50.900;4.672;2023-07-28T09:34:22;26.15;;;24.80;;
9801;SDS011;4940;50.900;4.672;2023-07-28T09:36:52;31.65;;;29.75;;
9801;SDS011;4940;50.900;4.672;2023-07-28T09:39:20;32.80;;;30.73;;
9801;SDS011;4940;50.900;4.672;2023-07-28T09:41:47;32.75;;;30.58;;
9801;SDS011;4940;50.900;4.672;2023-07-28T09:44:16;35.97;;;33.40;;
9801;SDS011;4940;50.900;4.672;2023-07-28T09:46:47;36.42;;;33.80;;
9801;SDS011;4940;50.900;4.672;2023-07-28T09:49:17;35.20;;;32.55;;
9801;SDS011;4940;50.900;4.672;2023-07-28T09:51:48;35.42;;;32.85;;
9801;SDS011;4940;50.900;4.672;2023-07-28T09:54:19;35.63;;;32.83;;
9801;SDS011;4940;50.900;4.672;2023-07-28T09:56:55;33.75;;;31.25;;
9801;SDS011;4940;50.900;4.672;2023-07-28T09:59:27;34.83;;;32.25;;
9801;SDS011;4940;50.900;4.672;2023-07-28T10:01:59;34.90;;;32.40;;
9801;SDS011;4940;50.900;4.672;2023-07-28T10:04:27;34.50;;;32.00;;
9801;SDS011;4940;50.900;4.672;2023-07-28T10:06:55;34.65;;;32.15;;
9801;SDS011;4940;50.900;4.672;2023-07-28T10:09:23;35.50;;;32.90;;
9801;SDS011;4940;50.900;4.672;2023-07-28T10:11:51;37.33;;;34.65;;
9801;SDS011;4940;50.900;4.672;2023-07-28T10:14:27;36.70;;;33.72;;
9801;SDS011;4940;50.900;4.672;2023-07-28T10:16:56;36.30;;;33.20;;
9801;SDS011;4940;50.900;4.672;2023-07-28T10:19:24;38.85;;;35.38;;
9801;SDS011;4940;50.900;4.672;2023-07-28T10:21:58;40.90;;;37.30;;
9801;SDS011;4940;50.900;4.672;2023-07-28T10:27:27;36.53;;;34.08;;
9801;SDS011;4940;50.900;4.672;2023-07-28T10:29:57;27.55;;;26.15;;
9801;SDS011;4940;50.900;4.672;2023-07-28T10:32:26;23.50;;;22.35;;
9801;SDS011;4940;50.900;4.672;2023-07-28T10:35:00;25.42;;;24.17;;
9801;SDS011;4940;50.900;4.672;2023-07-28T10:37:30;21.90;;;20.80;;
9801;SDS011;4940;50.900;4.672;2023-07-28T10:42:50;23.00;;;21.90;;
9801;SDS011;4940;50.900;4.672;2023-07-28T10:45:19;21.95;;;20.92;;
9801;SDS011;4940;50.900;4.672;2023-07-28T10:47:47;20.73;;;19.70;;
9801;SDS011;4940;50.900;4.672;2023-07-28T10:50:15;9.20;;;8.70;;
9801;SDS011;4940;50.900;4.672;2023-07-28T10:52:42;5.80;;;5.50;;
9801;SDS011;4940;50.900;4.672;2023-07-28T10:55:14;4.60;;;4.40;;
9801;SDS011;4940;50.900;4.672;2023-07-28T10:57:41;5.60;;;5.30;;
9801;SDS011;4940;50.900;4.672;2023-07-28T11:00:09;9.63;;;9.05;;
9801;SDS011;4940;50.900;4.672;2023-07-28T11:02:40;9.25;;;8.85;;
9801;SDS011;4940;50.900;4.672;2023-07-28T11:05:09;7.13;;;6.82;;
9801;SDS011;4940;50.900;4.672;2023-07-28T11:07:40;3.50;;;3.30;;
9801;SDS011;4940;50.900;4.672;2023-07-28T11:10:08;3.20;;;2.95;;
9801;SDS011;4940;50.900;4.672;2023-07-28T11:12:39;2.58;;;2.42;;
9801;SDS011;4940;50.900;4.672;2023-07-28T11:15:08;2.00;;;1.90;;
9801;SDS011;4940;50.900;4.672;2023-07-28T11:17:38;2.25;;;2.05;;
9801;SDS011;4940;50.900;4.672;2023-07-28T11:20:14;2.35;;;2.15;;
9801;SDS011;4940;50.900;4.672;2023-07-28T11:22:42;2.10;;;2.00;;
9801;SDS011;4940;50.900;4.672;2023-07-28T11:25:10;2.50;;;2.30;;
9801;SDS011;4940;50.900;4.672;2023-07-28T11:27:38;4.15;;;2.63;;
9801;SDS011;4940;50.900;4.672;2023-07-28T11:30:07;2.85;;;2.60;;
9801;SDS011;4940;50.900;4.672;2023-07-28T11:32:36;3.00;;;2.80;;
9801;SDS011;4940;50.900;4.672;2023-07-28T11:35:06;2.95;;;2.75;;
9801;SDS011;4940;50.900;4.672;2023-07-28T11:37:34;3.40;;;3.10;;
9801;SDS011;4940;50.900;4.672;2023-07-28T11:40:02;5.55;;;3.67;;
9801;SDS011;4940;50.900;4.672;2023-07-28T11:42:32;3.28;;;3.08;;
9801;SDS011;4940;50.900;4.672;2023-07-28T11:45:01;3.20;;;3.00;;
9801;SDS011;4940;50.900;4.672;2023-07-28T11:47:29;3.20;;;3.00;;
9801;SDS011;4940;50.900;4.672;2023-07-28T11:49:57;3.50;;;3.08;;
9801;SDS011;4940;50.900;4.672;2023-07-28T11:52:30;2.80;;;2.60;;
9801;SDS011;4940;50.900;4.672;2023-07-28T11:54:58;2.63;;;2.42;;
9801;SDS011;4940;50.900;4.672;2023-07-28T11:57:25;2.50;;;2.30;;
9801;SDS011;4940;50.900;4.672;2023-07-28T11:59:56;2.40;;;2.20;;
9801;SDS011;4940;50.900;4.672;2023-07-28T12:02:27;2.33;;;2.17;;
9801;SDS011;4940;50.900;4.672;2023-07-28T12:04:55;2.10;;;2.00;;
9801;SDS011;4940;50.900;4.672;2023-07-28T12:07:27;3.00;;;1.67;;
9801;SDS011;4940;50.900;4.672;2023-07-28T12:09:56;3.17;;;1.80;;
9801;SDS011;4940;50.900;4.672;2023-07-28T12:12:29;3.08;;;1.83;;
9801;SDS011;4940;50.900;4.672;2023-07-28T12:14:59;2.15;;;1.95;;
9801;SDS011;4940;50.900;4.672;2023-07-28T12:17:30;2.13;;;1.92;;
9801;SDS011;4940;50.900;4.672;2023-07-28T12:19:58;2.20;;;1.90;;
9801;SDS011;4940;50.900;4.672;2023-07-28T12:22:27;2.05;;;1.80;;
9801;SDS011;4940;50.900;4.672;2023-07-28T12:24:54;2.15;;;1.90;;
9801;SDS011;4940;50.900;4.672;2023-07-28T12:27:23;3.50;;;2.13;;
9801;SDS011;4940;50.900;4.672;2023-07-28T12:29:52;1.70;;;1.60;;
9801;SDS011;4940;50.900;4.672;2023-07-28T12:32:19;2.00;;;1.90;;
9801;SDS011;4940;50.900;4.672;2023-07-28T12:34:47;2.63;;;2.42;;
9801;SDS011;4940;50.900;4.672;2023-07-28T12:37:15;2.22;;;2.03;;
9801;SDS011;4940;50.900;4.672;2023-07-28T12:39:42;2.67;;;2.20;;
9801;SDS011;4940;50.900;4.672;2023-07-28T12:42:11;1.90;;;1.80;;
9801;SDS011;4940;50.900;4.672;2023-07-28T12:44:40;2.17;;;2.05;;
9801;SDS011;4940;50.900;4.672;2023-07-28T12:47:07;3.97;;;2.00;;
9801;SDS011;4940;50.900;4.672;2023-07-28T12:49:35;1.90;;;1.80;;
9801;SDS011;4940;50.900;4.672;2023-07-28T12:52:03;2.17;;;1.98;;
9801;SDS011;4940;50.900;4.672;2023-07-28T12:54:32;2.03;;;1.88;;
9801;SDS011;4940;50.900;4.672;2023-07-28T12:56:59;3.70;;;1.90;;
9801;SDS011;4940;50.900;4.672;2023-07-28T12:59:28;3.58;;;1.80;;
9801;SDS011;4940;50.900;4.672;2023-07-28T13:01:56;1.65;;;1.48;;
9801;SDS011;4940;50.900;4.672;2023-07-28T13:04:23;1.50;;;1.40;;
9801;SDS011;4940;50.900;4.672;2023-07-28T13:06:50;1.60;;;1.50;;
9801;SDS011;4940;50.900;4.672;2023-07-28T13:09:18;2.10;;;1.77;;
9801;SDS011;4940;50.900;4.672;2023-07-28T13:11:45;1.50;;;1.40;;
9801;SDS011;4940;50.900;4.672;2023-07-28T13:14:13;1.67;;;1.50;;
9801;SDS011;4940;50.900;4.672;2023-07-28T13:16:42;1.50;;;1.40;;
9801;SDS011;4940;50.900;4.672;2023-07-28T13:19:09;2.05;;;1.40;;
9801;SDS011;4940;50.900;4.672;2023-07-28T13:21:37;1.70;;;1.60;;
9801;SDS011;4940;50.900;4.672;2023-07-28T13:24:04;1.55;;;1.45;;
9801;SDS011;4940;50.900;4.672;2023-07-28T13:26:31;1.60;;;1.50;;
9801;SDS011;4940;50.900;4.672;2023-07-28T13:28:59;2.22;;;1.60;;
9801;SDS011;4940;50.900;4.672;2023-07-28T13:31:27;3.05;;;1.55;;
9801;SDS011;4940;50.900;4.672;2023-07-28T13:33:55;1.60;;;1.42;;
9801;SDS011;4940;50.900;4.672;2023-07-28T13:36:23;5.05;;;1.40;;
9801;SDS011;4940;50.900;4.672;2023-07-28T13:38:50;2.65;;;1.50;;
9801;SDS011;4940;50.900;4.672;2023-07-28T13:41:17;3.40;;;1.38;;
9801;SDS011;4940;50.900;4.672;2023-07-28T13:43:45;1.70;;;1.60;;
9801;SDS011;4940;50.900;4.672;2023-07-28T13:46:12;1.40;;;1.30;;
9801;SDS011;4940;50.900;4.672;2023-07-28T13:48:39;1.73;;;1.52;;
9801;SDS011;4940;50.900;4.672;2023-07-28T13:51:08;2.47;;;1.30;;
9801;SDS011;4940;50.900;4.672;2023-07-28T13:53:35;1.38;;;1.20;;
9801;SDS011;4940;50.900;4.672;2023-07-28T13:56:02;1.50;;;1.40;;
9801;SDS011;4940;50.900;4.672;2023-07-28T13:58:30;1.30;;;1.15;;
9801;SDS011;4940;50.900;4.672;2023-07-28T14:00:58;2.72;;;1.52;;
9801;SDS011;4940;50.900;4.672;2023-07-28T14:03:25;1.40;;;1.30;;
9801;SDS011;4940;50.900;4.672;2023-07-28T14:05:53;1.58;;;1.20;;
9801;SDS011;4940;50.900;4.672;2023-07-28T14:08:21;1.30;;;1.20;;
9801;SDS011;4940;50.900;4.672;2023-07-28T14:10:49;1.70;;;1.30;;
9801;SDS011;4940;50.900;4.672;2023-07-28T14:13:16;5.03;;;2.42;;
9801;SDS011;4940;50.900;4.672;2023-07-28T14:15:43;1.45;;;1.23;;
9801;SDS011;4940;50.900;4.672;2023-07-28T14:18:10;2.10;;;1.30;;
9801;SDS011;4940;50.900;4.672;2023-07-28T14:20:38;1.45;;;1.35;;
9801;SDS011;4940;50.900;4.672;2023-07-28T14:23:19;1.33;;;1.23;;
9801;SDS011;4940;50.900;4.672;2023-07-28T14:25:49;1.20;;;1.10;;
9801;SDS011;4940;50.900;4.672;2023-07-28T14:28:17;2.08;;;1.20;;
9801;SDS011;4940;50.900;4.672;2023-07-28T14:30:44;1.33;;;1.23;;
9801;SDS011;4940;50.900;4.672;2023-07-28T14:33:12;1.58;;;1.27;;
9801;SDS011;4940;50.900;4.672;2023-07-28T14:35:40;2.30;;;1.27;;
9801;SDS011;4940;50.900;4.672;2023-07-28T14:38:08;1.20;;;1.10;;
9801;SDS011;4940;50.900;4.672;2023-07-28T14:40:37;4.57;;;1.30;;
9801;SDS011;4940;50.900;4.672;2023-07-28T14:43:05;3.65;;;1.30;;
9801;SDS011;4940;50.900;4.672;2023-07-28T14:45:32;1.55;;;1.20;;
9801;SDS011;4940;50.900;4.672;2023-07-28T14:48:00;1.20;;;1.10;;
9801;SDS011;4940;50.900;4.672;2023-07-28T14:50:28;1.30;;;1.20;;
9801;SDS011;4940;50.900;4.672;2023-07-28T14:52:57;1.77;;;1.10;;
9801;SDS011;4940;50.900;4.672;2023-07-28T14:55:25;1.35;;;1.13;;
9801;SDS011;4940;50.900;4.672;2023-07-28T14:57:53;2.25;;;1.30;;
9801;SDS011;4940;50.900;4.672;2023-07-28T15:00:21;1.15;;;1.05;;
9801;SDS011;4940;50.900;4.672;2023-07-28T15:02:48;2.85;;;1.05;;
9801;SDS011;4940;50.900;4.672;2023-07-28T15:05:16;1.50;;;1.40;;
9801;SDS011;4940;50.900;4.672;2023-07-28T15:07:43;1.40;;;1.30;;